createdAt,value
2022-10-26T00:02:22.888Z,99209.31
2022-10-26T00:04:52.762Z,99206.28
2022-10-26T00:07:21.648Z,99202.56
2022-10-26T00:09:51.329Z,99206.88
2022-10-26T00:12:19.964Z,99221.63
2022-10-26T00:14:52.243Z,99222.56
2022-10-26T00:17:20.944Z,99223.44
2022-10-26T00:19:49.623Z,99215.16
2022-10-26T00:22:18.368Z,99215.97
2022-10-26T00:24:47.453Z,99217.56
2022-10-26T00:27:16.415Z,99222.63
2022-10-26T00:29:45.063Z,99206.97
2022-10-26T00:32:15.061Z,99215.22
2022-10-26T00:34:43.707Z,99223.78
2022-10-26T00:37:12.554Z,99223.88
2022-10-26T00:39:41.162Z,99225.69
2022-10-26T00:42:15.386Z,99224.25
2022-10-26T00:45:05.640Z,99223.59
2022-10-26T00:47:44.514Z,99221.38
2022-10-26T00:50:19.760Z,99224.69
2022-10-26T00:52:49.848Z,99221.91
2022-10-26T00:55:22.791Z,99224.75
2022-10-26T00:57:53.662Z,99228.22
2022-10-26T01:00:23.318Z,99227.72
2022-10-26T01:02:56.323Z,99221.44
2022-10-26T01:05:27.466Z,99223.97
2022-10-26T01:07:56.773Z,99224.41
2022-10-26T01:10:28.579Z,99222.00
2022-10-26T01:13:00.022Z,99223.63
2022-10-26T01:15:44.572Z,99224.50
2022-10-26T01:18:27.140Z,99211.72
2022-10-26T01:21:45.946Z,99216.69
2022-10-26T01:25:03.128Z,99215.09
2022-10-26T01:27:35.799Z,99212.59
2022-10-26T01:30:35.029Z,99209.75
2022-10-26T01:33:33.884Z,99213.88
2022-10-26T01:36:13.400Z,99213.88
2022-10-26T01:38:59.113Z,99212.59
2022-10-26T01:41:34.320Z,99215.50
2022-10-26T01:44:16.610Z,99211.78
2022-10-26T01:46:51.430Z,99208.56
2022-10-26T01:49:27.177Z,99209.38
2022-10-26T01:51:56.281Z,99207.53
2022-10-26T01:54:25.183Z,99208.53
2022-10-26T01:56:58.718Z,99219.63
2022-10-26T02:00:00.635Z,99210.16
2022-10-26T02:03:04.544Z,99213.88
2022-10-26T02:06:07.741Z,99212.91
2022-10-26T02:08:59.651Z,99207.75
2022-10-26T02:11:41.408Z,99195.50
2022-10-26T02:14:23.680Z,99202.69
2022-10-26T02:16:58.419Z,99208.06
2022-10-26T02:19:39.855Z,99198.97
2022-10-26T02:22:16.972Z,99201.28
2022-10-26T02:24:47.405Z,99204.31
2022-10-26T02:27:24.060Z,99205.38
2022-10-26T02:29:56.419Z,99197.97
2022-10-26T02:32:31.161Z,99199.00
2022-10-26T02:35:06.995Z,99201.88
2022-10-26T02:37:37.846Z,99201.06
2022-10-26T02:40:14.650Z,99201.66
2022-10-26T02:42:47.514Z,99199.19
2022-10-26T02:45:29.578Z,99191.38
2022-10-26T02:47:59.241Z,99191.75
2022-10-26T02:50:43.569Z,99189.66
2022-10-26T02:53:23.548Z,99195.25
2022-10-26T02:55:53.513Z,99197.56
2022-10-26T02:58:29.162Z,99195.16
2022-10-26T03:00:59.329Z,99201.34
2022-10-26T03:03:27.997Z,99192.66
2022-10-26T03:05:58.178Z,99188.34
2022-10-26T03:10:55.458Z,99193.91
2022-10-26T03:13:24.066Z,99196.81
2022-10-26T03:15:56.064Z,99196.84
2022-10-26T03:18:24.855Z,99194.78
2022-10-26T03:20:53.500Z,99196.00
2022-10-26T03:23:23.692Z,99189.66
2022-10-26T03:25:52.475Z,99189.44
2022-10-26T03:28:22.075Z,99191.44
2022-10-26T03:31:42.517Z,99195.00
2022-10-26T03:34:11.211Z,99191.75
2022-10-26T03:36:39.916Z,99196.44
2022-10-26T03:39:10.001Z,99190.31
2022-10-26T03:41:38.641Z,99195.63
2022-10-26T03:44:07.634Z,99196.47
2022-10-26T03:46:37.307Z,99194.59
2022-10-26T03:49:06.093Z,99190.50
2022-10-26T03:51:34.722Z,99191.34
2022-10-26T03:54:03.472Z,99196.06
2022-10-26T03:56:33.617Z,99194.03
2022-10-26T03:59:02.499Z,99193.84
2022-10-26T04:01:31.209Z,99193.63
2022-10-26T04:03:59.877Z,99196.28
2022-10-26T04:06:28.660Z,99194.41
2022-10-26T04:09:02.489Z,99194.03
2022-10-26T04:11:32.876Z,99192.84
2022-10-26T04:14:01.838Z,99192.63
2022-10-26T04:16:33.277Z,99195.72
2022-10-26T04:19:02.606Z,99199.00
2022-10-26T04:21:32.990Z,99189.97
2022-10-26T04:24:01.655Z,99191.41
2022-10-26T04:26:30.648Z,99192.06
2022-10-26T04:29:00.870Z,99183.00
2022-10-26T04:31:29.607Z,99183.00
2022-10-26T04:33:58.530Z,99185.91
2022-10-26T04:36:27.219Z,99191.66
2022-10-26T04:38:56.194Z,99187.72
2022-10-26T04:41:24.917Z,99184.88
2022-10-26T04:43:53.600Z,99181.00
2022-10-26T04:46:23.649Z,99176.06
2022-10-26T04:48:52.344Z,99180.19
2022-10-26T04:51:21.112Z,99165.00
2022-10-26T04:53:50.027Z,99167.88
2022-10-26T04:56:18.767Z,99172.59
2022-10-26T04:58:47.683Z,99172.19
2022-10-26T05:01:16.783Z,99165.84
2022-10-26T05:03:50.731Z,99158.88
2022-10-26T05:06:19.447Z,99160.69
2022-10-26T05:08:48.508Z,99168.72
2022-10-26T05:11:17.407Z,99170.56
2022-10-26T05:13:48.018Z,99176.50
2022-10-26T05:16:17.526Z,99166.25
2022-10-26T05:18:50.655Z,99170.75
2022-10-26T05:21:20.512Z,99167.88
2022-10-26T05:23:52.646Z,99167.88
2022-10-26T05:26:21.806Z,99171.16
2022-10-26T05:28:50.588Z,99165.84
2022-10-26T05:31:19.308Z,99175.72
2022-10-26T05:33:53.283Z,99165.88
2022-10-26T05:36:22.491Z,99169.94
2022-10-26T05:38:51.246Z,99166.25
2022-10-26T05:41:19.973Z,99163.41
2022-10-26T05:43:49.291Z,99168.31
2022-10-26T05:46:18.311Z,99178.53
2022-10-26T05:48:48.456Z,99168.72
2022-10-26T05:51:18.671Z,99164.03
2022-10-26T05:53:47.362Z,99182.22
2022-10-26T05:56:22.274Z,99178.97
2022-10-26T05:58:51.833Z,99189.63
2022-10-26T06:01:34.470Z,99189.00
2022-10-26T06:04:22.606Z,99189.22
2022-10-26T06:06:56.126Z,99191.25
2022-10-26T06:09:25.936Z,99199.44
2022-10-26T06:11:55.625Z,99195.38
2022-10-26T06:14:25.024Z,99197.38
2022-10-26T06:17:16.837Z,99186.31
2022-10-26T06:20:10.509Z,99190.84
2022-10-26T06:23:01.926Z,99201.66
2022-10-26T06:25:47.096Z,99198.81
2022-10-26T06:28:35.498Z,99202.47
2022-10-26T06:31:04.482Z,99211.28
2022-10-26T06:33:33.675Z,99210.63
2022-10-26T06:36:21.107Z,99208.75
2022-10-26T06:38:57.020Z,99214.50
2022-10-26T06:41:27.544Z,99207.53
2022-10-26T06:43:58.432Z,99212.84
2022-10-26T06:46:40.987Z,99212.38
2022-10-26T06:49:22.430Z,99218.72
2022-10-26T06:52:00.068Z,99225.69
2022-10-26T06:54:48.595Z,99215.16
2022-10-26T06:57:20.667Z,99213.94
2022-10-26T06:59:54.756Z,99213.91
2022-10-26T07:02:24.362Z,99213.88
2022-10-26T07:04:53.244Z,99217.13
2022-10-26T07:07:25.477Z,99217.50
2022-10-26T07:09:55.938Z,99212.13
2022-10-26T07:12:25.477Z,99227.28
2022-10-26T07:14:55.974Z,99224.78
2022-10-26T07:17:25.044Z,99232.00
2022-10-26T07:19:53.934Z,99221.69
2022-10-26T07:22:22.894Z,99215.25
2022-10-26T07:24:52.234Z,99221.38
2022-10-26T07:27:24.134Z,99217.28
2022-10-26T07:29:53.730Z,99218.44
2022-10-26T07:32:23.059Z,99226.16
2022-10-26T07:34:51.977Z,99218.09
2022-10-26T07:37:21.538Z,99225.09
2022-10-26T07:39:50.405Z,99215.75
2022-10-26T07:42:20.547Z,99224.09
2022-10-26T07:44:51.515Z,99217.06
2022-10-26T07:47:20.639Z,99222.91
2022-10-26T07:49:49.500Z,99220.56
2022-10-26T07:52:19.457Z,99214.69
2022-10-26T07:54:48.424Z,99210.69
2022-10-26T07:57:18.752Z,99217.16
2022-10-26T07:59:48.217Z,99206.53
2022-10-26T08:02:19.538Z,99216.09
2022-10-26T08:04:49.386Z,99214.53
2022-10-26T08:07:18.685Z,99216.66
2022-10-26T08:09:47.849Z,99214.34
2022-10-26T08:12:16.756Z,99217.78
2022-10-26T08:14:45.587Z,99215.00
2022-10-26T08:17:14.207Z,99211.41
2022-10-26T08:19:44.355Z,99218.31
2022-10-26T08:22:15.961Z,99214.50
2022-10-26T08:24:46.882Z,99214.41
2022-10-26T08:27:16.214Z,99215.13
2022-10-26T08:29:45.183Z,99205.47
2022-10-26T08:32:14.175Z,99210.47
2022-10-26T08:34:44.266Z,99207.13
2022-10-26T08:37:13.969Z,99205.59
2022-10-26T08:39:44.603Z,99199.41
2022-10-26T08:42:22.879Z,99200.22
2022-10-26T08:45:00.674Z,99198.59
2022-10-26T08:47:43.309Z,99206.06
2022-10-26T08:50:23.091Z,99208.19
2022-10-26T08:53:03.820Z,99204.88
2022-10-26T08:55:45.527Z,99210.72
2022-10-26T08:58:24.963Z,99205.81
2022-10-26T09:00:55.828Z,99203.94
2022-10-26T09:03:27.231Z,99212.81
2022-10-26T09:06:20.122Z,99206.19
2022-10-26T09:09:08.322Z,99212.94
2022-10-26T09:11:55.876Z,99215.72
2022-10-26T09:14:44.107Z,99211.56
2022-10-26T09:17:25.332Z,99220.88
2022-10-26T09:20:26.931Z,99207.47
2022-10-26T09:23:11.898Z,99215.06
2022-10-26T09:25:42.585Z,99212.13
2022-10-26T09:28:19.641Z,99221.94
2022-10-26T09:30:50.073Z,99218.88
2022-10-26T09:33:24.289Z,99217.19
2022-10-26T09:36:00.520Z,99218.16
2022-10-26T09:38:35.610Z,99217.66
2022-10-26T09:41:25.162Z,99217.00
2022-10-26T09:44:06.993Z,99210.16
2022-10-26T09:46:49.426Z,99209.69
2022-10-26T09:49:22.347Z,99200.47
2022-10-26T09:51:51.205Z,99209.97
2022-10-26T09:54:22.896Z,99206.41
2022-10-26T09:56:56.966Z,99211.22
2022-10-26T09:59:27.587Z,99213.66
2022-10-26T10:01:56.193Z,99213.94
2022-10-26T10:04:26.163Z,99210.50
2022-10-26T10:07:15.216Z,99211.94
2022-10-26T10:09:45.380Z,99216.13
2022-10-26T10:12:22.467Z,99203.41
2022-10-26T10:14:59.816Z,99205.75
2022-10-26T10:17:28.914Z,99202.50
2022-10-26T10:20:13.073Z,99203.00
2022-10-26T10:22:59.816Z,99199.56
2022-10-26T10:25:38.003Z,99203.66
2022-10-26T10:28:23.935Z,99201.06
2022-10-26T10:31:01.043Z,99197.28
2022-10-26T10:33:40.623Z,99202.16
2022-10-26T10:36:16.385Z,99203.81
2022-10-26T10:38:47.740Z,99197.47
2022-10-26T10:41:28.202Z,99196.16
2022-10-26T10:44:07.234Z,99194.81
2022-10-26T10:46:37.809Z,99200.22
2022-10-26T10:49:18.479Z,99202.03
2022-10-26T10:51:48.319Z,99195.19
2022-10-26T10:54:33.571Z,99199.50
2022-10-26T10:57:24.073Z,99192.22
2022-10-26T11:00:03.730Z,99197.44
2022-10-26T11:03:17.007Z,99198.56
2022-10-26T11:06:06.270Z,99191.38
2022-10-26T11:08:44.646Z,99193.91
2022-10-26T11:11:19.299Z,99194.44
2022-10-26T11:13:57.268Z,99200.97
2022-10-26T11:16:33.334Z,99203.75
2022-10-26T11:27:26.777Z,99209.91
2022-10-26T11:30:02.387Z,99199.72
2022-10-26T11:32:41.163Z,99201.34
2022-10-26T11:35:17.020Z,99199.97
2022-10-26T11:37:55.079Z,99204.03
2022-10-26T11:40:37.340Z,99199.72
2022-10-26T11:43:23.606Z,99208.84
2022-10-26T11:46:07.368Z,99208.03
2022-10-26T11:48:46.027Z,99208.28
2022-10-26T11:51:35.305Z,99209.91
2022-10-26T11:54:12.028Z,99213.94
2022-10-26T11:56:49.240Z,99209.69
2022-10-26T11:59:28.033Z,99209.97
2022-10-26T12:02:07.975Z,99211.66
2022-10-26T12:04:40.611Z,99215.50
2022-10-26T12:07:27.040Z,99220.16
2022-10-26T12:09:59.136Z,99210.22
2022-10-26T12:12:40.353Z,99218.41
2022-10-26T12:15:30.903Z,99206.19
2022-10-26T12:18:26.838Z,99217.13
2022-10-26T12:21:05.681Z,99212.06
2022-10-26T12:23:51.203Z,99214.31
2022-10-26T12:26:53.392Z,99221.13
2022-10-26T12:29:37.165Z,99220.63
2022-10-26T12:32:52.199Z,99214.44
2022-10-26T12:35:46.715Z,99220.16
2022-10-26T12:39:00.255Z,99213.19
2022-10-26T12:41:30.130Z,99215.38
2022-10-26T12:44:08.987Z,99214.56
2022-10-26T12:51:49.682Z,99218.41
2022-10-26T12:54:45.638Z,99218.97
2022-10-26T12:57:28.878Z,99221.72
2022-10-26T13:00:06.092Z,99226.03
2022-10-26T13:02:57.662Z,99220.38
2022-10-26T13:06:12.859Z,99223.38
2022-10-26T13:08:47.213Z,99224.47
2022-10-26T13:11:22.380Z,99219.91
2022-10-26T13:13:57.335Z,99219.44
2022-10-26T13:16:29.571Z,99221.09
2022-10-26T13:19:00.668Z,99217.88
2022-10-26T13:21:30.244Z,99217.09
2022-10-26T13:24:05.643Z,99226.56
2022-10-26T13:27:13.369Z,99222.25
2022-10-26T13:30:33.902Z,99219.78
2022-10-26T13:33:05.002Z,99220.03
2022-10-26T13:35:34.991Z,99228.97
2022-10-26T13:38:11.730Z,99235.41
2022-10-26T13:40:44.452Z,99230.34
2022-10-26T13:43:22.742Z,99237.38
2022-10-26T13:45:57.512Z,99230.34
2022-10-26T13:48:39.254Z,99231.41
2022-10-26T13:51:20.541Z,99231.91
2022-10-26T13:53:58.611Z,99236.72
2022-10-26T13:56:37.297Z,99232.91
2022-10-26T13:59:12.350Z,99235.25
2022-10-26T14:01:41.997Z,99239.81
2022-10-26T14:04:18.917Z,99245.16
2022-10-26T14:06:53.742Z,99240.00
2022-10-26T14:09:24.409Z,99238.09
2022-10-26T14:11:58.466Z,99233.72
2022-10-26T14:14:31.974Z,99238.00
2022-10-26T14:17:02.116Z,99240.66
2022-10-26T14:19:39.961Z,99247.38
2022-10-26T14:22:09.321Z,99246.56
2022-10-26T14:24:47.280Z,99239.53
2022-10-26T14:27:20.137Z,99239.03
2022-10-26T14:30:20.940Z,99235.25
2022-10-26T14:32:44.541Z,99241.19
2022-10-26T14:35:14.520Z,99245.53
2022-10-26T14:37:51.947Z,99249.88
2022-10-26T14:40:27.312Z,99253.38
2022-10-26T14:43:01.851Z,99261.72
2022-10-26T14:45:48.252Z,99270.06
2022-10-26T14:48:30.208Z,99259.53
2022-10-26T14:51:05.873Z,99265.44
2022-10-26T14:53:39.722Z,99264.88
2022-10-26T14:56:24.650Z,99258.13
2022-10-26T14:58:58.505Z,99258.88
2022-10-26T15:01:38.608Z,99254.25
2022-10-26T15:04:08.953Z,99253.38
2022-10-26T15:07:08.841Z,99265.19
2022-10-26T15:10:49.104Z,99270.78
2022-10-26T15:13:28.408Z,99277.19
2022-10-26T15:16:10.904Z,99271.50
2022-10-26T15:18:40.721Z,99268.97
2022-10-26T15:21:25.696Z,99276.75
2022-10-26T15:23:57.329Z,99279.63
2022-10-26T15:26:27.028Z,99281.25
2022-10-26T15:28:56.523Z,99281.50
2022-10-26T15:31:35.209Z,99283.63
2022-10-26T15:34:15.939Z,99282.53
2022-10-26T15:36:44.860Z,99283.34
2022-10-26T15:39:13.515Z,99278.75
2022-10-26T15:41:49.338Z,99287.09
2022-10-26T15:44:23.096Z,99281.94
2022-10-26T15:46:53.258Z,99285.97
2022-10-26T15:49:22.857Z,99279.75
2022-10-26T15:51:51.480Z,99287.84
2022-10-26T15:54:20.134Z,99294.31
2022-10-26T15:56:49.156Z,99295.84
2022-10-26T15:59:19.852Z,99304.44
2022-10-26T16:01:48.872Z,99305.75
2022-10-26T16:04:19.015Z,99313.53
2022-10-26T16:06:47.807Z,99313.75
2022-10-26T16:09:19.127Z,99305.13
2022-10-26T16:11:47.969Z,99317.22
2022-10-26T16:14:16.543Z,99312.31
2022-10-26T16:16:45.192Z,99323.91
2022-10-26T16:19:31.173Z,99317.72
2022-10-26T16:22:02.853Z,99328.72
2022-10-26T16:24:32.521Z,99329.00
2022-10-26T16:27:01.534Z,99327.34
2022-10-26T16:29:31.791Z,99328.19
2022-10-26T16:32:00.425Z,99331.09
2022-10-26T16:34:29.118Z,99333.22
2022-10-26T16:37:00.238Z,99333.22
2022-10-26T16:39:28.931Z,99328.31
2022-10-26T16:41:58.170Z,99330.47
2022-10-26T16:44:28.055Z,99338.22
2022-10-26T16:46:58.083Z,99338.47
2022-10-26T16:49:28.035Z,99340.59
2022-10-26T16:52:00.238Z,99341.66
2022-10-26T16:54:31.190Z,99340.25
2022-10-26T16:57:01.985Z,99341.56
2022-10-26T16:59:32.025Z,99350.13
2022-10-26T17:02:00.813Z,99353.31
2022-10-26T17:04:29.676Z,99354.88
2022-10-26T17:06:58.243Z,99355.84
2022-10-26T17:09:28.639Z,99361.81
2022-10-26T17:12:01.729Z,99364.25
2022-10-26T17:14:32.136Z,99361.81
2022-10-26T17:17:01.462Z,99368.84
2022-10-26T17:19:30.351Z,99363.94
2022-10-26T17:21:59.064Z,99366.88
2022-10-26T17:24:29.407Z,99371.44
2022-10-26T17:26:59.693Z,99377.88
2022-10-26T17:29:29.253Z,99385.16
2022-10-26T17:31:58.149Z,99385.63
2022-10-26T17:34:27.478Z,99384.25
2022-10-26T17:36:57.763Z,99389.38
2022-10-26T17:39:28.143Z,99391.81
2022-10-26T17:41:56.913Z,99397.19
2022-10-26T17:44:25.994Z,99404.47
2022-10-26T17:46:55.037Z,99409.84
2022-10-26T17:49:26.518Z,99414.41
2022-10-26T17:51:56.750Z,99414.31
2022-10-26T17:54:26.537Z,99421.81
2022-10-26T17:56:56.806Z,99421.25
2022-10-26T17:59:26.666Z,99423.09
2022-10-26T18:01:55.704Z,99429.22
2022-10-26T18:04:25.880Z,99432.38
2022-10-26T18:06:54.709Z,99439.09
2022-10-26T18:09:23.482Z,99436.97
2022-10-26T18:11:55.839Z,99446.91
2022-10-26T18:14:28.309Z,99451.22
2022-10-26T18:19:41.436Z,99450.09
2022-10-26T18:22:09.922Z,99453.81
2022-10-26T18:24:38.864Z,99454.88
2022-10-26T18:27:08.782Z,99457.81
2022-10-26T18:29:40.102Z,99463.91
2022-10-26T18:32:08.799Z,99462.16
2022-10-26T18:34:37.850Z,99461.59
2022-10-26T18:37:07.955Z,99463.09
2022-10-26T18:39:36.749Z,99475.97
2022-10-26T18:42:06.543Z,99473.03
2022-10-26T18:44:35.830Z,99477.59
2022-10-26T18:47:05.125Z,99475.97
2022-10-26T18:49:34.203Z,99484.06
2022-10-26T18:52:13.934Z,99487.69
2022-10-26T18:54:43.623Z,99484.66
2022-10-26T18:57:14.617Z,99481.50
2022-10-26T18:59:44.034Z,99491.91
2022-10-26T19:02:17.383Z,99498.34
2022-10-26T19:04:46.811Z,99497.41
2022-10-26T19:07:23.218Z,99505.22
2022-10-26T19:09:53.311Z,99506.78
2022-10-26T19:12:22.546Z,99513.00
2022-10-26T19:14:52.146Z,99510.16
2022-10-26T19:17:22.480Z,99523.25
2022-10-26T19:19:51.910Z,99523.84
2022-10-26T19:22:22.581Z,99525.00
2022-10-26T19:24:51.670Z,99533.81
2022-10-26T19:27:20.523Z,99537.50
2022-10-26T19:29:49.531Z,99536.38
2022-10-26T19:32:18.407Z,99545.25
2022-10-26T19:34:47.506Z,99554.81
2022-10-26T19:37:16.205Z,99551.91
2022-10-26T19:39:46.921Z,99558.31
2022-10-26T19:42:16.027Z,99553.28
2022-10-26T19:44:47.219Z,99561.13
2022-10-26T19:47:16.196Z,99555.28
2022-10-26T19:49:45.758Z,99560.03
2022-10-26T19:52:14.991Z,99562.97
2022-10-26T19:54:45.272Z,99561.34
2022-10-26T19:57:14.444Z,99560.75
2022-10-26T19:59:43.728Z,99570.31
2022-10-26T20:02:13.493Z,99566.44
2022-10-26T20:04:43.143Z,99571.72
2022-10-26T20:07:15.910Z,99576.75
2022-10-26T20:09:46.809Z,99583.50
2022-10-26T20:12:17.072Z,99590.38
2022-10-26T20:14:46.388Z,99587.69
2022-10-26T20:17:17.330Z,99594.69
2022-10-26T20:19:46.469Z,99584.41
2022-10-26T20:22:15.526Z,99593.28
2022-10-26T20:24:45.646Z,99598.53
2022-10-26T20:27:14.655Z,99595.84
2022-10-26T20:29:43.335Z,99605.97
2022-10-26T20:32:15.283Z,99609.63
2022-10-26T20:34:46.274Z,99610.09
2022-10-26T20:37:16.288Z,99607.03
2022-10-26T20:39:47.287Z,99605.75
2022-10-26T20:42:25.093Z,99603.63
2022-10-26T20:45:04.412Z,99609.38
2022-10-26T20:47:34.067Z,99611.81
2022-10-26T20:50:04.889Z,99613.56
2022-10-26T20:52:43.476Z,99616.47
2022-10-26T20:55:28.716Z,99616.81
2022-10-26T20:58:04.469Z,99623.47
2022-10-26T21:00:43.450Z,99626.00
2022-10-26T21:03:13.120Z,99620.41
2022-10-26T21:05:48.089Z,99625.19
2022-10-26T21:08:16.788Z,99633.03
2022-10-26T21:10:46.834Z,99631.75
2022-10-26T21:13:15.509Z,99634.31
2022-10-26T21:15:45.108Z,99634.13
2022-10-26T21:18:13.825Z,99624.44
2022-10-26T21:20:42.526Z,99634.50
2022-10-26T21:23:12.470Z,99644.63
2022-10-26T21:25:41.188Z,99633.69
2022-10-26T21:28:11.226Z,99643.22
2022-10-26T21:30:39.918Z,99640.16
2022-10-26T21:33:08.560Z,99642.63
2022-10-26T21:35:37.316Z,99643.31
2022-10-26T21:38:05.919Z,99642.63
2022-10-26T21:43:12.763Z,99655.78
2022-10-26T21:45:40.150Z,99646.44
2022-10-26T21:48:07.541Z,99651.00
2022-10-26T21:50:35.059Z,99656.34
2022-10-26T21:53:02.246Z,99664.41
2022-10-26T21:55:29.581Z,99655.97
2022-10-26T21:59:11.658Z,99665.44
2022-10-26T22:01:40.630Z,99666.34
2022-10-26T22:04:11.271Z,99664.72
2022-10-26T22:06:39.951Z,99671.09
2022-10-26T22:09:08.750Z,99670.66
2022-10-26T22:11:37.360Z,99677.31
2022-10-26T22:14:06.046Z,99677.50
2022-10-26T22:16:36.032Z,99672.63
2022-10-26T22:19:08.654Z,99682.16
2022-10-26T22:21:40.341Z,99665.81
2022-10-26T22:24:11.274Z,99671.88
2022-10-26T22:26:40.238Z,99679.16
2022-10-26T22:29:08.845Z,99676.25
2022-10-26T22:31:41.215Z,99677.66
2022-10-26T22:34:16.766Z,99672.88
2022-10-26T22:36:46.184Z,99673.94
2022-10-26T22:39:14.914Z,99669.03
2022-10-26T22:41:43.657Z,99674.16
2022-10-26T22:44:12.371Z,99682.59
2022-10-26T22:46:42.355Z,99679.31
2022-10-26T22:49:13.513Z,99676.19
2022-10-26T22:51:42.162Z,99682.28
2022-10-26T22:54:13.402Z,99686.31
2022-10-26T22:56:42.067Z,99690.78
2022-10-26T22:59:10.721Z,99684.25
2022-10-26T23:01:42.055Z,99702.34
2022-10-26T23:04:12.824Z,99695.94
2022-10-26T23:06:42.265Z,99695.88
2022-10-26T23:09:10.919Z,99701.81
2022-10-26T23:11:39.834Z,99697.50
2022-10-26T23:17:07.127Z,99700.09
2022-10-26T23:19:34.584Z,99710.44
2022-10-26T23:22:02.067Z,99708.38
2022-10-26T23:24:29.609Z,99718.88
2022-10-26T23:26:58.261Z,99718.06
2022-10-26T23:29:26.880Z,99714.94
2022-10-26T23:31:55.486Z,99716.34
2022-10-26T23:34:25.649Z,99724.03
2022-10-26T23:36:54.502Z,99716.75
2022-10-26T23:39:24.034Z,99712.38
2022-10-26T23:41:53.123Z,99713.19
2022-10-26T23:44:22.220Z,99720.19
2022-10-26T23:46:51.224Z,99716.59
2022-10-26T23:49:20.576Z,99715.56
2022-10-26T23:51:51.159Z,99722.56
2022-10-26T23:54:20.498Z,99727.50
2022-10-26T23:56:49.773Z,99717.56
2022-10-26T23:59:19.727Z,99727.25
